Home > Products > Valid Products > TAF

000
FTUS43 KDMX 022326
TAFFOD
TAF
KFOD 022326Z 0300/0324 23005KT P6SM SKC
     FM030500 18005KT P6SM FEW150
     FM031300 16007KT P6SM VCTS BKN030CB
     FM031700 17013KT P6SM BKN040=



000
FTUS43 KDMX 022326
TAFMCW
TAF
KMCW 022326Z 0300/0324 25008KT P6SM SKC
     FM030400 20004KT P6SM SKC
     FM031400 16012KT P6SM BKN035
     FM031700 16014G20KT P6SM BKN040=



000
FTUS43 KDMX 022326
TAFOTM
TAF
KOTM 022326Z 0300/0324 29006KT P6SM SKC
     FM030700 18003KT P6SM SKC
     FM031400 15012KT P6SM BKN050=



000
FTUS43 KDMX 022326
TAFALO
TAF
KALO 022326Z 0300/0324 25008KT P6SM SKC
     FM030500 20004KT P6SM SKC
     FM031500 14012KT P6SM BKN040=



000
FTUS43 KDMX 022326
TAFDSM
TAF
KDSM 022326Z 0300/0324 25005KT P6SM SKC
     FM030400 19005KT P6SM SKC
     FM031100 16005KT P6SM SCT035 BKN050
     FM031700 16013KT P6SM BKN050=



000
FTUS43 KDMX 022326
TAFFOD
TAF
KFOD 022326Z 0300/0324 23005KT P6SM SKC
     FM030500 18005KT P6SM FEW150
     FM031300 16007KT P6SM VCTS BKN030CB
     FM031700 17013KT P6SM BKN040=



000
FTUS43 KDMX 022326
TAFOTM
TAF
KOTM 022326Z 0300/0324 29006KT P6SM SKC
     FM030700 18003KT P6SM SKC
     FM031400 15012KT P6SM BKN050=



000
FTUS43 KDMX 022326
TAFALO
TAF
KALO 022326Z 0300/0324 25008KT P6SM SKC
     FM030500 20004KT P6SM SKC
     FM031500 14012KT P6SM BKN040=



000
FTUS43 KDMX 022326
TAFDSM
TAF
KDSM 022326Z 0300/0324 25005KT P6SM SKC
     FM030400 19005KT P6SM SKC
     FM031100 16005KT P6SM SCT035 BKN050
     FM031700 16013KT P6SM BKN050=



000
FTUS43 KDMX 022326
TAFMCW
TAF
KMCW 022326Z 0300/0324 25008KT P6SM SKC
     FM030400 20004KT P6SM SKC
     FM031400 16012KT P6SM BKN035
     FM031700 16014G20KT P6SM BKN040=



000
FTUS43 KDMX 021733
TAFMCW
TAF
KMCW 021733Z 0218/0318 26010KT P6SM FEW200
     FM030600 18004KT P6SM SCT200
     FM031200 17006KT 5SM BR VCTS BKN030CB
     FM031700 14012KT P6SM BKN040=



000
FTUS43 KDMX 021733
TAFALO
TAF
KALO 021733Z 0218/0318 26008KT P6SM FEW200
     FM030700 18006KT P6SM SCT200
     FM031500 12009KT P6SM VCTS BKN040CB=



000
FTUS43 KDMX 021733
TAFOTM
TAF
KOTM 021733Z 0218/0318 27007KT P6SM FEW030 SCT100
     FM031500 15012KT P6SM BKN060=



000
FTUS43 KDMX 021733
TAFDSM
TAF
KDSM 021733Z 0218/0318 27005KT P6SM FEW200
     FM030600 19005KT P6SM SCT200
     FM031100 14005KT P6SM VCTS SCT040CB BKN060
     FM031700 16013KT P6SM BKN120=



000
FTUS43 KDMX 021733
TAFFOD
TAF
KFOD 021733Z 0218/0318 26005KT P6SM SKC
     FM030500 18005KT P6SM SCT070
     FM031100 16007KT P6SM -TSRA BKN030CB
     FM031700 17013KT P6SM SCT100=



000
FTUS43 KDMX 021733
TAFALO
TAF
KALO 021733Z 0218/0318 26008KT P6SM FEW200
     FM030700 18006KT P6SM SCT200
     FM031500 12009KT P6SM VCTS BKN040CB=



000
FTUS43 KDMX 021733
TAFDSM
TAF
KDSM 021733Z 0218/0318 27005KT P6SM FEW200
     FM030600 19005KT P6SM SCT200
     FM031100 14005KT P6SM VCTS SCT040CB BKN060
     FM031700 16013KT P6SM BKN120=



000
FTUS43 KDMX 021733
TAFMCW
TAF
KMCW 021733Z 0218/0318 26010KT P6SM FEW200
     FM030600 18004KT P6SM SCT200
     FM031200 17006KT 5SM BR VCTS BKN030CB
     FM031700 14012KT P6SM BKN040=



000
FTUS43 KDMX 021733
TAFOTM
TAF
KOTM 021733Z 0218/0318 27007KT P6SM FEW030 SCT100
     FM031500 15012KT P6SM BKN060=



000
FTUS43 KDMX 021733
TAFFOD
TAF
KFOD 021733Z 0218/0318 26005KT P6SM SKC
     FM030500 18005KT P6SM SCT070
     FM031100 16007KT P6SM -TSRA BKN030CB
     FM031700 17013KT P6SM SCT100=



000
FTUS43 KDMX 021328 AAA
TAFALO
TAF AMD
KALO 021328Z 0213/0312 VRB03KT P6SM SCT100
     FM021700 27005KT P6SM SCT080
     FM022000 26010KT P6SM BKN050
     FM030400 17004KT P6SM SCT040=



000
FTUS43 KDMX 021328 AAA
TAFALO
TAF AMD
KALO 021328Z 0213/0312 VRB03KT P6SM SCT100
     FM021700 27005KT P6SM SCT080
     FM022000 26010KT P6SM BKN050
     FM030400 17004KT P6SM SCT040=



000
FTUS43 KDMX 021327 AAA
TAFMCW
TAF AMD
KMCW 021327Z 0213/0312 VRB04KT P6SM SKC
     FM021600 26009KT P6SM SCT060
     FM030300 19004KT P6SM SCT050
     FM031100 15006KT 5SM BR VCSH BKN030=



000
FTUS43 KDMX 021327 AAA
TAFMCW
TAF AMD
KMCW 021327Z 0213/0312 VRB04KT P6SM SKC
     FM021600 26009KT P6SM SCT060
     FM030300 19004KT P6SM SCT050
     FM031100 15006KT 5SM BR VCSH BKN030=



000
FTUS43 KDMX 021201 AAB
TAFOTM
TAF AMD
KOTM 021201Z 0212/0312 VRB03KT P6SM FEW003 BKN040
      TEMPO 0212/0213 1/2SM FG VV003
     FM021400 25006KT P6SM SCT040
     FM021700 27007KT P6SM SCT080
     FM022300 22004KT P6SM SKC
     FM030800 15005KT P6SM BKN100=



000
FTUS43 KDMX 021201 AAB
TAFOTM
TAF AMD
KOTM 021201Z 0212/0312 VRB03KT P6SM FEW003 BKN040
      TEMPO 0212/0213 1/2SM FG VV003
     FM021400 25006KT P6SM SCT040
     FM021700 27007KT P6SM SCT080
     FM022300 22004KT P6SM SKC
     FM030800 15005KT P6SM BKN100=



000
FTUS43 KDMX 021146 AAA
TAFOTM
TAF AMD
KOTM 021146Z 0212/0312 VRB03KT 6SM BR FEW003 BKN040
      TEMPO 0212/0214 1/2SM FG VV003
     FM021500 25006KT 6SM HZ SCT040
     FM021700 27007KT P6SM SCT080
     FM022300 22004KT P6SM SKC
     FM030800 15005KT P6SM BKN100=



000
FTUS43 KDMX 021146 AAA
TAFOTM
TAF AMD
KOTM 021146Z 0212/0312 VRB03KT 6SM BR FEW003 BKN040
      TEMPO 0212/0214 1/2SM FG VV003
     FM021500 25006KT 6SM HZ SCT040
     FM021700 27007KT P6SM SCT080
     FM022300 22004KT P6SM SKC
     FM030800 15005KT P6SM BKN100=



000
FTUS43 KDMX 021132
TAFMCW
TAF
KMCW 021132Z 0212/0312 30010KT P6SM VCSH BKN080
      TEMPO 0212/0214 5SM -SHRA BR BKN060
     FM021600 26009KT P6SM SCT060
     FM030300 19004KT P6SM SCT050
     FM031100 15006KT 5SM BR VCSH BKN030=



000
FTUS43 KDMX 021132
TAFFOD
TAF
KFOD 021132Z 0212/0312 VRB02KT P6SM OVC110
     FM021600 26008KT P6SM SCT100
     FM030200 17004KT P6SM SCT050
     FM031100 16007KT P6SM VCTS BKN030CB=



000
FTUS43 KDMX 021132
TAFDSM
TAF
KDSM 021132Z 0212/0312 30003KT P6SM FEW150
     FM021700 25008KT P6SM SCT040
     FM022300 19005KT P6SM SCT080
     FM030400 14005KT P6SM VCTS SCT040CB BKN060=



000
FTUS43 KDMX 021132
TAFOTM
TAF
KOTM 021132Z 0212/0312 VRB03KT 1SM BR FEW003 BKN040
      TEMPO 0212/0214 1/2SM FG VV003
     FM021500 25006KT 6SM HZ SCT040
     FM021700 27007KT P6SM SCT080
     FM022300 22004KT P6SM SKC
     FM030800 15005KT P6SM BKN100=



000
FTUS43 KDMX 021132
TAFALO
TAF
KALO 021132Z 0212/0312 VRB03KT P6SM VCTS SCT035CB BKN080
      TEMPO 0212/0214 3SM TSRA BKN030CB
     FM021700 27005KT P6SM SCT080
     FM022000 26010KT P6SM BKN050
     FM030400 17004KT P6SM SCT040=



000
FTUS43 KDMX 021132
TAFFOD
TAF
KFOD 021132Z 0212/0312 VRB02KT P6SM OVC110
     FM021600 26008KT P6SM SCT100
     FM030200 17004KT P6SM SCT050
     FM031100 16007KT P6SM VCTS BKN030CB=



000
FTUS43 KDMX 021132
TAFOTM
TAF
KOTM 021132Z 0212/0312 VRB03KT 1SM BR FEW003 BKN040
      TEMPO 0212/0214 1/2SM FG VV003
     FM021500 25006KT 6SM HZ SCT040
     FM021700 27007KT P6SM SCT080
     FM022300 22004KT P6SM SKC
     FM030800 15005KT P6SM BKN100=



000
FTUS43 KDMX 021132
TAFMCW
TAF
KMCW 021132Z 0212/0312 30010KT P6SM VCSH BKN080
      TEMPO 0212/0214 5SM -SHRA BR BKN060
     FM021600 26009KT P6SM SCT060
     FM030300 19004KT P6SM SCT050
     FM031100 15006KT 5SM BR VCSH BKN030=



000
FTUS43 KDMX 021132
TAFDSM
TAF
KDSM 021132Z 0212/0312 30003KT P6SM FEW150
     FM021700 25008KT P6SM SCT040
     FM022300 19005KT P6SM SCT080
     FM030400 14005KT P6SM VCTS SCT040CB BKN060=



000
FTUS43 KDMX 021132
TAFALO
TAF
KALO 021132Z 0212/0312 VRB03KT P6SM VCTS SCT035CB BKN080
      TEMPO 0212/0214 3SM TSRA BKN030CB
     FM021700 27005KT P6SM SCT080
     FM022000 26010KT P6SM BKN050
     FM030400 17004KT P6SM SCT040=



000
FTUS43 KDMX 021047 AAB
TAFMCW
TAF AMD
KMCW 021047Z 0211/0306 29013KT P6SM VCSH BKN080
      TEMPO 0211/0213 4SM TSRA BR BKN050CB
     FM021300 28007KT P6SM SCT060=



000
FTUS43 KDMX 021047 AAB
TAFMCW
TAF AMD
KMCW 021047Z 0211/0306 29013KT P6SM VCSH BKN080
      TEMPO 0211/0213 4SM TSRA BR BKN050CB
     FM021300 28007KT P6SM SCT060=



000
FTUS43 KDMX 021046 AAA
TAFOTM
TAF AMD
KOTM 021046Z 0211/0306 VRB03KT P6SM SKC
      TEMPO 0211/0213 1SM BR FEW002
     FM021700 26007KT P6SM SCT040=



000
FTUS43 KDMX 021046 AAA
TAFOTM
TAF AMD
KOTM 021046Z 0211/0306 VRB03KT P6SM SKC
      TEMPO 0211/0213 1SM BR FEW002
     FM021700 26007KT P6SM SCT040=



000
FTUS43 KDMX 020959 AAA
TAFMCW
TAF AMD
KMCW 020959Z 0210/0306 25015G25KT P6SM VCSH BKN080
      TEMPO 0210/0211 4SM TSRA BR BKN050CB
     FM021300 28007KT P6SM SCT060=



000
FTUS43 KDMX 020959 AAA
TAFMCW
TAF AMD
KMCW 020959Z 0210/0306 25015G25KT P6SM VCSH BKN080
      TEMPO 0210/0211 4SM TSRA BR BKN050CB
     FM021300 28007KT P6SM SCT060=



000
FTUS43 KDMX 020957 AAA
TAFALO
TAF AMD
KALO 020957Z 0210/0306 VRB03KT P6SM SKC
     FM021000 28015G25KT 5SM -TSRA BR SCT035CB BKN050
     FM021200 VRB03KT P6SM BKN080
     FM021500 26008KT P6SM SCT040=



000
FTUS43 KDMX 020520
TAFMCW
TAF
KMCW 020520Z 0206/0306 VRB03KT P6SM SCT100
     FM020900 25006KT P6SM VCSH BKN080
     FM021300 28007KT P6SM SCT060=



000
FTUS43 KDMX 020520
TAFDSM
TAF
KDSM 020520Z 0206/0306 VRB04KT P6SM FEW150
     FM021700 25011KT P6SM SCT040=



000
FTUS43 KDMX 020520
TAFMCW
TAF
KMCW 020520Z 0206/0306 VRB03KT P6SM SCT100
     FM020900 25006KT P6SM VCSH BKN080
     FM021300 28007KT P6SM SCT060=



000
FTUS43 KDMX 020520
TAFFOD
TAF
KFOD 020520Z 0206/0306 VRB03KT P6SM VCTS BKN070CB
     FM020800 27003KT P6SM SCT080
     FM030200 18006KT P6SM BKN050=



000
FTUS43 KDMX 020520
TAFALO
TAF
KALO 020520Z 0206/0306 VRB03KT P6SM SKC
     FM021500 26008KT P6SM SCT040=



000
FTUS43 KDMX 020520
TAFOTM
TAF
KOTM 020520Z 0206/0306 VRB03KT P6SM SKC
     FM021700 26007KT P6SM SCT040=



000
FTUS43 KDMX 020520
TAFFOD
TAF
KFOD 020520Z 0206/0306 VRB03KT P6SM VCTS BKN070CB
     FM020800 27003KT P6SM SCT080
     FM030200 18006KT P6SM BKN050=



000
FTUS43 KDMX 020520
TAFALO
TAF
KALO 020520Z 0206/0306 VRB03KT P6SM SKC
     FM021500 26008KT P6SM SCT040=



000
FTUS43 KDMX 020520
TAFOTM
TAF
KOTM 020520Z 0206/0306 VRB03KT P6SM SKC
     FM021700 26007KT P6SM SCT040=



000
FTUS43 KDMX 020520
TAFDSM
TAF
KDSM 020520Z 0206/0306 VRB04KT P6SM FEW150
     FM021700 25011KT P6SM SCT040=



000
FTUS43 KDMX 012335
TAFFOD
TAF
KFOD 012335Z 0200/0224 27004KT P6SM BKN090=



000
FTUS43 KDMX 012335
TAFALO
TAF
KALO 012335Z 0200/0224 32010KT P6SM SKC
     FM020300 26005KT P6SM SCT150=



000
FTUS43 KDMX 012335
TAFMCW
TAF
KMCW 012335Z 0200/0224 31010KT P6SM SCT090
     FM020300 25005KT P6SM SKC
     FM021600 30007KT P6SM BKN080=



000
FTUS43 KDMX 012335
TAFDSM
TAF
KDSM 012335Z 0200/0224 27006KT P6SM SCT150 BKN250
     FM021500 22011KT P6SM SCT030=



000
FTUS43 KDMX 012335
TAFOTM
TAF
KOTM 012335Z 0200/0224 28006KT P6SM SCT040=



000
FTUS43 KDMX 012335
TAFFOD
TAF
KFOD 012335Z 0200/0224 27004KT P6SM BKN090=



000
FTUS43 KDMX 012335
TAFDSM
TAF
KDSM 012335Z 0200/0224 27006KT P6SM SCT150 BKN250
     FM021500 22011KT P6SM SCT030=



000
FTUS43 KDMX 012335
TAFMCW
TAF
KMCW 012335Z 0200/0224 31010KT P6SM SCT090
     FM020300 25005KT P6SM SKC
     FM021600 30007KT P6SM BKN080=



000
FTUS43 KDMX 012335
TAFALO
TAF
KALO 012335Z 0200/0224 32010KT P6SM SKC
     FM020300 26005KT P6SM SCT150=



000
FTUS43 KDMX 012335
TAFOTM
TAF
KOTM 012335Z 0200/0224 28006KT P6SM SCT040=



000
FTUS43 KDMX 011739
TAFDSM
TAF
KDSM 011739Z 0118/0218 28013KT P6SM SCT025 BKN040
     FM020000 30004KT P6SM SCT050
     FM021500 26011KT P6SM SCT030=



000
FTUS43 KDMX 011739
TAFFOD
TAF
KFOD 011739Z 0118/0218 28013KT P6SM SCT020 BKN035
     FM020300 30002KT P6SM SCT030 BKN150
     FM021500 15006KT P6SM SCT035=



000
FTUS43 KDMX 011739
TAFALO
TAF
KALO 011739Z 0118/0218 25016KT P6SM VCSH SCT020 BKN040
      TEMPO 0118/0120 BKN022
     FM012000 28012KT P6SM SCT030 BKN050
     FM020000 28005KT P6SM SCT050=



000
FTUS43 KDMX 011739
TAFOTM
TAF
KOTM 011739Z 0118/0218 27013KT P6SM SCT025 BKN040
     FM012100 29010KT P6SM VCSH BKN035
     FM012300 29005KT P6SM SCT030 BKN080=



000
FTUS43 KDMX 011739
TAFMCW
TAF
KMCW 011739Z 0118/0218 31012KT P6SM SCT020 BKN050
     FM012300 27006KT P6SM SCT030 BKN070=



000
FTUS43 KDMX 011739
TAFDSM
TAF
KDSM 011739Z 0118/0218 28013KT P6SM SCT025 BKN040
     FM020000 30004KT P6SM SCT050
     FM021500 26011KT P6SM SCT030=



000
FTUS43 KDMX 011739
TAFFOD
TAF
KFOD 011739Z 0118/0218 28013KT P6SM SCT020 BKN035
     FM020300 30002KT P6SM SCT030 BKN150
     FM021500 15006KT P6SM SCT035=



000
FTUS43 KDMX 011739
TAFMCW
TAF
KMCW 011739Z 0118/0218 31012KT P6SM SCT020 BKN050
     FM012300 27006KT P6SM SCT030 BKN070=



000
FTUS43 KDMX 011739
TAFALO
TAF
KALO 011739Z 0118/0218 25016KT P6SM VCSH SCT020 BKN040
      TEMPO 0118/0120 BKN022
     FM012000 28012KT P6SM SCT030 BKN050
     FM020000 28005KT P6SM SCT050=



000
FTUS43 KDMX 011739
TAFOTM
TAF
KOTM 011739Z 0118/0218 27013KT P6SM SCT025 BKN040
     FM012100 29010KT P6SM VCSH BKN035
     FM012300 29005KT P6SM SCT030 BKN080=



000
FTUS43 KDMX 011504 AAA
TAFFOD
TAF AMD
KFOD 011504Z 0115/0212 25007KT P6SM BKN018
     FM011700 29009KT P6SM BKN035
     FM020300 27003KT P6SM VCSH BKN030
     FM020700 VRB02KT P6SM BKN050=



000
FTUS43 KDMX 011504 AAA
TAFFOD
TAF AMD
KFOD 011504Z 0115/0212 25007KT P6SM BKN018
     FM011700 29009KT P6SM BKN035
     FM020300 27003KT P6SM VCSH BKN030
     FM020700 VRB02KT P6SM BKN050=



000
FTUS43 KDMX 011434 AAC
TAFDSM
TAF AMD
KDSM 011434Z 0115/0212 25014KT P6SM SCT015 BKN040
      TEMPO 0115/0117 BKN015
     FM011700 29013KT P6SM BKN040
     FM020300 33004KT P6SM SCT050
     FM020900 VRB03KT 5SM BR SCT020=



000
FTUS43 KDMX 011434 AAC
TAFDSM
TAF AMD
KDSM 011434Z 0115/0212 25014KT P6SM SCT015 BKN040
      TEMPO 0115/0117 BKN015
     FM011700 29013KT P6SM BKN040
     FM020300 33004KT P6SM SCT050
     FM020900 VRB03KT 5SM BR SCT020=



000
FTUS43 KDMX 011404 AAB
TAFDSM
TAF AMD
KDSM 011404Z 0114/0212 23012KT P6SM SCT015 BKN050
     FM011500 29013KT P6SM BKN040
     FM020300 33004KT P6SM SCT050
     FM020900 VRB03KT 5SM BR SCT020=



000
FTUS43 KDMX 011404 AAB
TAFDSM
TAF AMD
KDSM 011404Z 0114/0212 23012KT P6SM SCT015 BKN050
     FM011500 29013KT P6SM BKN040
     FM020300 33004KT P6SM SCT050
     FM020900 VRB03KT 5SM BR SCT020=



000
FTUS43 KDMX 011245 AAA
TAFDSM
TAF AMD
KDSM 011245Z 0113/0212 23012KT P6SM VCSH SCT015 OVC035
     FM011500 27010KT P6SM BKN050
     FM011900 30010KT P6SM VCSH BKN030
     FM012200 33005KT P6SM SCT030 BKN080
     FM020300 VRB04KT P6SM SCT050
     FM020900 VRB03KT 5SM BR SCT020=



000
FTUS43 KDMX 011245 AAA
TAFDSM
TAF AMD
KDSM 011245Z 0113/0212 23012KT P6SM VCSH SCT015 OVC035
     FM011500 27010KT P6SM BKN050
     FM011900 30010KT P6SM VCSH BKN030
     FM012200 33005KT P6SM SCT030 BKN080
     FM020300 VRB04KT P6SM SCT050
     FM020900 VRB03KT 5SM BR SCT020=



000
FTUS43 KDMX 011143
TAFMCW
TAF
KMCW 011143Z 0112/0212 19007KT 6SM BR VCSH OVC013
      TEMPO 0112/0113 BKN008
     FM011700 30012KT P6SM BKN030
     FM012100 29008KT P6SM SCT030
     FM020700 26005KT P6SM BKN050=



000
FTUS43 KDMX 011143
TAFMCW
TAF
KMCW 011143Z 0112/0212 19007KT 6SM BR VCSH OVC013
      TEMPO 0112/0113 BKN008
     FM011700 30012KT P6SM BKN030
     FM012100 29008KT P6SM SCT030
     FM020700 26005KT P6SM BKN050=



000
FTUS43 KDMX 011142
TAFDSM
TAF
KDSM 011142Z 0112/0212 23012KT P6SM VCSH BKN025 OVC035
     FM011500 27010KT P6SM BKN050
     FM011900 30010KT P6SM VCSH BKN030
     FM012200 33005KT P6SM SCT030 BKN080
     FM020300 VRB04KT P6SM SCT050
     FM020900 VRB03KT 5SM BR SCT020=



000
FTUS43 KDMX 011142
TAFMCW
TAF
KMCW 011142Z 0112/0212 19007KT 6SM BR VCSH OVC013
     FM011700 30012KT P6SM BKN030
     FM012100 29008KT P6SM SCT030
     FM020700 26005KT P6SM BKN050=



000
FTUS43 KDMX 011142
TAFFOD
TAF
KFOD 011142Z 0112/0212 22008KT P6SM VCSH BKN012 OVC035
     FM011500 31008KT P6SM BKN035
     FM012100 VRB02KT P6SM SCT050
     FM020300 27003KT P6SM VCSH BKN030
     FM020700 VRB02KT P6SM BKN050=



000
FTUS43 KDMX 011142
TAFALO
TAF
KALO 011142Z 0112/0212 19009KT P6SM VCSH BKN080
      TEMPO 0112/0114 6SM -TSRA BKN013CB
     FM011400 22009KT P6SM BKN013
     FM011600 28011KT P6SM BKN040
     FM020000 29003KT P6SM SCT050
     FM020500 VRB02KT P6SM BKN030=



000
FTUS43 KDMX 011142
TAFOTM
TAF
KOTM 011142Z 0112/0212 VRB04KT P6SM VCSH SCT015 BKN035
     FM011500 26010KT P6SM BKN040
     FM011900 29010KT P6SM VCSH BKN030
     FM012300 32005KT P6SM SCT030 BKN080
     FM020300 VRB04KT P6SM SCT050
     FM020900 VRB03KT 5SM BR SCT020=



000
FTUS43 KDMX 011142
TAFFOD
TAF
KFOD 011142Z 0112/0212 22008KT P6SM VCSH BKN012 OVC035
     FM011500 31008KT P6SM BKN035
     FM012100 VRB02KT P6SM SCT050
     FM020300 27003KT P6SM VCSH BKN030
     FM020700 VRB02KT P6SM BKN050=



000
FTUS43 KDMX 011142
TAFALO
TAF
KALO 011142Z 0112/0212 19009KT P6SM VCSH BKN080
      TEMPO 0112/0114 6SM -TSRA BKN013CB
     FM011400 22009KT P6SM BKN013
     FM011600 28011KT P6SM BKN040
     FM020000 29003KT P6SM SCT050
     FM020500 VRB02KT P6SM BKN030=



000
FTUS43 KDMX 011142
TAFDSM
TAF
KDSM 011142Z 0112/0212 23012KT P6SM VCSH BKN025 OVC035
     FM011500 27010KT P6SM BKN050
     FM011900 30010KT P6SM VCSH BKN030
     FM012200 33005KT P6SM SCT030 BKN080
     FM020300 VRB04KT P6SM SCT050
     FM020900 VRB03KT 5SM BR SCT020=



000
FTUS43 KDMX 011142
TAFMCW
TAF
KMCW 011142Z 0112/0212 19007KT 6SM BR VCSH OVC013
     FM011700 30012KT P6SM BKN030
     FM012100 29008KT P6SM SCT030
     FM020700 26005KT P6SM BKN050=



000
FTUS43 KDMX 011142
TAFOTM
TAF
KOTM 011142Z 0112/0212 VRB04KT P6SM VCSH SCT015 BKN035
     FM011500 26010KT P6SM BKN040
     FM011900 29010KT P6SM VCSH BKN030
     FM012300 32005KT P6SM SCT030 BKN080
     FM020300 VRB04KT P6SM SCT050
     FM020900 VRB03KT 5SM BR SCT020=



000
FTUS43 KDMX 011142
TAFFOD
TAF
KFOD 011142Z 0112/0212 22008KT P6SM VCSH BKN012 OVC035
      TEMPO 0112/0113 BKN009
     FM011500 31008KT P6SM BKN035
     FM012100 VRB02KT P6SM SCT050
     FM020300 27003KT P6SM VCSH BKN030
     FM020700 VRB02KT P6SM BKN050=



000
FTUS43 KDMX 010620 AAA
TAFOTM
TAF AMD
KOTM 010620Z 0106/0206 11008KT P6SM -TSRA SCT025 BKN050CB
     FM010800 21010KT P6SM BKN050
     FM011400 25011KT P6SM VCSH BKN040
     FM012000 29010KT P6SM SCT050
     FM020000 33005KT P6SM SCT060=



000
FTUS43 KDMX 010620 AAA
TAFOTM
TAF AMD
KOTM 010620Z 0106/0206 11008KT P6SM -TSRA SCT025 BKN050CB
     FM010800 21010KT P6SM BKN050
     FM011400 25011KT P6SM VCSH BKN040
     FM012000 29010KT P6SM SCT050
     FM020000 33005KT P6SM SCT060=



000
FTUS43 KDMX 010619 AAA
TAFMCW
TAF AMD
KMCW 010619Z 0106/0206 16011KT P6SM SCT050 OVC120
      TEMPO 0106/0108 5SM BR BKN005
     FM011000 VRB04KT 5SM BR VCSH SCT040 BKN150
     FM011500 31012KT P6SM SCT025
     FM020100 27005KT P6SM SCT040=



000
FTUS43 KDMX 010619 AAA
TAFMCW
TAF AMD
KMCW 010619Z 0106/0206 16011KT P6SM SCT050 OVC120
      TEMPO 0106/0108 5SM BR BKN005
     FM011000 VRB04KT 5SM BR VCSH SCT040 BKN150
     FM011500 31012KT P6SM SCT025
     FM020100 27005KT P6SM SCT040=



000
FTUS43 KDMX 010619 AAA
TAFFOD
TAF AMD
KFOD 010619Z 0106/0206 VRB03KT P6SM SCT040 BKN150
      TEMPO 0106/0108 5SM BR BKN007
     FM011000 29006KT P6SM VCSH BKN100
     FM011500 31008KT P6SM SCT030
     FM020000 26003KT P6SM FEW050=



000
FTUS43 KDMX 010619 AAA
TAFFOD
TAF AMD
KFOD 010619Z 0106/0206 VRB03KT P6SM SCT040 BKN150
      TEMPO 0106/0108 5SM BR BKN007
     FM011000 29006KT P6SM VCSH BKN100
     FM011500 31008KT P6SM SCT030
     FM020000 26003KT P6SM FEW050=



000
FTUS43 KDMX 010525
TAFMCW
TAF
KMCW 010525Z 0106/0206 16011KT P6SM SCT050 OVC120
     FM011000 VRB04KT 5SM BR VCSH SCT040 BKN150
     FM011500 31012KT P6SM SCT025
     FM020100 27005KT P6SM SCT040=



000
FTUS43 KDMX 010525
TAFFOD
TAF
KFOD 010525Z 0106/0206 VRB03KT 5SM BR SCT040 BKN150
     FM011000 29006KT P6SM VCSH BKN100
     FM011500 31008KT P6SM SCT030
     FM020000 26003KT P6SM FEW050=



000
FTUS43 KDMX 010525
TAFDSM
TAF
KDSM 010525Z 0106/0206 17015G22KT P6SM -TSRA BKN080CB
     FM010700 11005KT P6SM BKN050
     FM011500 30010KT P6SM SCT035
     FM020000 VRB04KT P6SM SCT050=



000
FTUS43 KDMX 010525
TAFOTM
TAF
KOTM 010525Z 0106/0206 15013KT P6SM -TSRA SCT025 BKN050CB
      TEMPO 0106/0107 27015G30KT 2SM TSRA BKN025CB
     FM010900 21010KT P6SM BKN050
     FM011400 25011KT P6SM VCSH BKN040
     FM012000 29010KT P6SM SCT050
     FM020000 33005KT P6SM SCT060=



000
FTUS43 KDMX 010525
TAFALO
TAF
KALO 010525Z 0106/0206 12009KT P6SM -TSRA SCT050 OVC090CB
     FM010700 16012KT P6SM BKN060
     FM010900 24006KT 5SM BR SCT060 BKN150
     FM011500 31011KT P6SM BKN040
     FM020000 29003KT P6SM SCT050=



000
FTUS43 KDMX 010525
TAFFOD
TAF
KFOD 010525Z 0106/0206 VRB03KT 5SM BR SCT040 BKN150
     FM011000 29006KT P6SM VCSH BKN100
     FM011500 31008KT P6SM SCT030
     FM020000 26003KT P6SM FEW050=



000
FTUS43 KDMX 010525
TAFDSM
TAF
KDSM 010525Z 0106/0206 17015G22KT P6SM -TSRA BKN080CB
     FM010700 11005KT P6SM BKN050
     FM011500 30010KT P6SM SCT035
     FM020000 VRB04KT P6SM SCT050=



000
FTUS43 KDMX 010525
TAFOTM
TAF
KOTM 010525Z 0106/0206 15013KT P6SM -TSRA SCT025 BKN050CB
      TEMPO 0106/0107 27015G30KT 2SM TSRA BKN025CB
     FM010900 21010KT P6SM BKN050
     FM011400 25011KT P6SM VCSH BKN040
     FM012000 29010KT P6SM SCT050
     FM020000 33005KT P6SM SCT060=



000
FTUS43 KDMX 010525
TAFMCW
TAF
KMCW 010525Z 0106/0206 16011KT P6SM SCT050 OVC120
     FM011000 VRB04KT 5SM BR VCSH SCT040 BKN150
     FM011500 31012KT P6SM SCT025
     FM020100 27005KT P6SM SCT040=



000
FTUS43 KDMX 010525
TAFALO
TAF
KALO 010525Z 0106/0206 12009KT P6SM -TSRA SCT050 OVC090CB
     FM010700 16012KT P6SM BKN060
     FM010900 24006KT 5SM BR SCT060 BKN150
     FM011500 31011KT P6SM BKN040
     FM020000 29003KT P6SM SCT050=



000
FTUS43 KDMX 010315 AAA
TAFOTM
TAF AMD
KOTM 010315Z 0103/0124 17011G18KT P6SM VCSH BKN120
     FM010500 15013KT P6SM VCTS SCT025 BKN050CB
      TEMPO 0105/0109 25025G35KT 2SM TSRA BKN030CB
     FM011100 24010KT P6SM SCT025 BKN030
     FM011800 28010KT P6SM BKN035=



000
FTUS43 KDMX 010315 AAA
TAFOTM
TAF AMD
KOTM 010315Z 0103/0124 17011G18KT P6SM VCSH BKN120
     FM010500 15013KT P6SM VCTS SCT025 BKN050CB
      TEMPO 0105/0109 25025G35KT 2SM TSRA BKN030CB
     FM011100 24010KT P6SM SCT025 BKN030
     FM011800 28010KT P6SM BKN035=



000
FTUS43 KDMX 010314 AAC
TAFDSM
TAF AMD
KDSM 010314Z 0103/0124 17013KT P6SM -TSRA BKN040CB OVC080
      TEMPO 0103/0105 25015G35KT 1SM TSRA SCT008 BKN015CB
     FM010700 25011KT P6SM SCT022 BKN030
     FM011400 29009KT P6SM SCT035=



000
FTUS43 KDMX 010314 AAC
TAFDSM
TAF AMD
KDSM 010314Z 0103/0124 17013KT P6SM -TSRA BKN040CB OVC080
      TEMPO 0103/0105 25015G35KT 1SM TSRA SCT008 BKN015CB
     FM010700 25011KT P6SM SCT022 BKN030
     FM011400 29009KT P6SM SCT035=



000
FTUS43 KDMX 010313 AAB
TAFALO
TAF AMD
KALO 010313Z 0103/0124 16011KT P6SM -TSRA SCT020 OVC050CB
      TEMPO 0103/0104 25025G35KT 1SM TSRA BKN028CB
     FM010600 16010KT P6SM SCT050 OVC120
     FM011100 24006KT P6SM BKN022
     FM011600 29010KT P6SM SCT025 BKN035=



000
FTUS43 KDMX 010313 AAB
TAFALO
TAF AMD
KALO 010313Z 0103/0124 16011KT P6SM -TSRA SCT020 OVC050CB
      TEMPO 0103/0104 25025G35KT 1SM TSRA BKN028CB
     FM010600 16010KT P6SM SCT050 OVC120
     FM011100 24006KT P6SM BKN022
     FM011600 29010KT P6SM SCT025 BKN035=



000
FTUS43 KDMX 010312 AAB
TAFMCW
TAF AMD
KMCW 010312Z 0103/0124 16010KT 6SM -TSRA BR SCT020 OVC080CB
     FM010500 16011KT P6SM SCT050 OVC120
     FM011000 25008KT P6SM BKN020
     FM011500 31011KT P6SM SCT025=



000
FTUS43 KDMX 010312 AAB
TAFMCW
TAF AMD
KMCW 010312Z 0103/0124 16010KT 6SM -TSRA BR SCT020 OVC080CB
     FM010500 16011KT P6SM SCT050 OVC120
     FM011000 25008KT P6SM BKN020
     FM011500 31011KT P6SM SCT025=



000
FTUS43 KDMX 010310 AAB
TAFFOD
TAF AMD
KFOD 010310Z 0103/0124 16008KT P6SM -TSRA SCT050CB OVC120
     FM010400 16008KT P6SM SCT025 OVC150
     FM010800 25006KT P6SM SCT025 BKN040
     FM011500 31007KT P6SM SCT035=



000
FTUS43 KDMX 010310 AAB
TAFFOD
TAF AMD
KFOD 010310Z 0103/0124 16008KT P6SM -TSRA SCT050CB OVC120
     FM010400 16008KT P6SM SCT025 OVC150
     FM010800 25006KT P6SM SCT025 BKN040
     FM011500 31007KT P6SM SCT035=



000
FTUS43 KDMX 010159 AAB
TAFDSM
TAF AMD
KDSM 010159Z 0102/0124 17013KT P6SM -TSRA BKN040CB OVC080
      TEMPO 0102/0106 25015G30KT 1SM TSRA SCT008 BKN015CB
     FM010700 25011KT P6SM SCT022 BKN030
     FM011400 29009KT P6SM SCT035=



000
FTUS43 KDMX 010159 AAB
TAFDSM
TAF AMD
KDSM 010159Z 0102/0124 17013KT P6SM -TSRA BKN040CB OVC080
      TEMPO 0102/0106 25015G30KT 1SM TSRA SCT008 BKN015CB
     FM010700 25011KT P6SM SCT022 BKN030
     FM011400 29009KT P6SM SCT035=



000
FTUS43 KDMX 010150 AAA
TAFALO
TAF AMD
KALO 010150Z 0102/0124 17010KT P6SM -SHRA SCT080 BKN120
     FM010300 16011KT P6SM VCTS SCT020 BKN050CB
      TEMPO 0104/0108 25025G35KT 2SM TSRA BKN028CB
     FM011100 24006KT P6SM BKN022
     FM011600 29010KT P6SM SCT025 BKN035=



000
FTUS43 KDMX 010150 AAA
TAFALO
TAF AMD
KALO 010150Z 0102/0124 17010KT P6SM -SHRA SCT080 BKN120
     FM010300 16011KT P6SM VCTS SCT020 BKN050CB
      TEMPO 0104/0108 25025G35KT 2SM TSRA BKN028CB
     FM011100 24006KT P6SM BKN022
     FM011600 29010KT P6SM SCT025 BKN035=



000
FTUS43 KDMX 010134 AAA
TAFMCW
TAF AMD
KMCW 010134Z 0102/0124 09008KT P6SM VCTS SCT020 BKN050CB
      TEMPO 0102/0105 25025G40KT 1/2SM +TSRA BKN008CB
     FM011000 25008KT P6SM BKN020
     FM011500 31011KT P6SM SCT025=



000
FTUS43 KDMX 010134 AAA
TAFMCW
TAF AMD
KMCW 010134Z 0102/0124 09008KT P6SM VCTS SCT020 BKN050CB
      TEMPO 0102/0105 25025G40KT 1/2SM +TSRA BKN008CB
     FM011000 25008KT P6SM BKN020
     FM011500 31011KT P6SM SCT025=



000
FTUS43 KDMX 010103 AAA
TAFDSM
TAF AMD
KDSM 010103Z 0101/0124 15010KT P6SM SCT060 BKN120
     FM010200 17013KT P6SM VCTS SCT030 BKN050CB
      TEMPO 0102/0106 25025G45KT 1/2SM +TSRA BKN008CB
     FM010800 25011KT P6SM SCT022 BKN030
     FM011400 29009KT P6SM SCT035=



000
FTUS43 KDMX 010103 AAA
TAFDSM
TAF AMD
KDSM 010103Z 0101/0124 15010KT P6SM SCT060 BKN120
     FM010200 17013KT P6SM VCTS SCT030 BKN050CB
      TEMPO 0102/0106 25025G45KT 1/2SM +TSRA BKN008CB
     FM010800 25011KT P6SM SCT022 BKN030
     FM011400 29009KT P6SM SCT035=



000
FTUS43 KDMX 010046 AAA
TAFFOD
TAF AMD
KFOD 010046Z 0101/0124 09006KT P6SM VCSH SCT050 BKN120
     FM010100 15012KT P6SM VCTS SCT030 BKN050CB
      TEMPO 0101/0104 25025G40KT 1/2SM +TSRA BKN010CB
     FM010800 25006KT P6SM SCT015 BKN050
     FM011500 31007KT P6SM SCT035=



000
FTUS43 KDMX 010046 AAA
TAFFOD
TAF AMD
KFOD 010046Z 0101/0124 09006KT P6SM VCSH SCT050 BKN120
     FM010100 15012KT P6SM VCTS SCT030 BKN050CB
      TEMPO 0101/0104 25025G40KT 1/2SM +TSRA BKN010CB
     FM010800 25006KT P6SM SCT015 BKN050
     FM011500 31007KT P6SM SCT035=



000
FTUS43 KDMX 312338
TAFFOD
TAF
KFOD 312338Z 0100/0124 09006KT P6SM VCSH SCT050 BKN120
     FM010100 15012KT P6SM VCTS SCT030 BKN050CB
      TEMPO 0101/0105 25025G40KT 2SM TSRA BKN030CB
     FM010800 25006KT P6SM SCT015 BKN050
     FM011500 31007KT P6SM SCT035=



000
FTUS43 KDMX 312338
TAFDSM
TAF
KDSM 312338Z 0100/0124 15010KT P6SM SCT060 BKN120
     FM010200 17013KT P6SM VCTS SCT030 BKN050CB
      TEMPO 0102/0106 25025G45KT 1SM TSRA BKN028CB
     FM010800 25011KT P6SM SCT022 BKN030
     FM011400 29009KT P6SM SCT035=



000
FTUS43 KDMX 312338
TAFMCW
TAF
KMCW 312338Z 0100/0124 19010KT P6SM SCT050 BKN100
     FM010200 16008KT P6SM VCTS SCT020 BKN050CB
      TEMPO 0104/0108 25025G40KT 2SM TSRA BKN028CB
     FM011000 25008KT P6SM BKN020
     FM011500 31011KT P6SM SCT025=



000
FTUS43 KDMX 312338
TAFOTM
TAF
KOTM 312338Z 0100/0124 17011G18KT P6SM VCSH BKN120
     FM010400 15013KT P6SM VCTS SCT025 BKN050CB
      TEMPO 0105/0109 25025G35KT 2SM TSRA BKN030CB
     FM011100 24010KT P6SM SCT025 BKN030
     FM011800 28010KT P6SM BKN035=



000
FTUS43 KDMX 312338
TAFALO
TAF
KALO 312338Z 0100/0124 17010KT P6SM VCSH SCT080 BKN120
     FM010300 16011KT P6SM VCTS SCT020 BKN050CB
      TEMPO 0104/0108 25025G35KT 2SM TSRA BKN028CB
     FM011100 24006KT P6SM BKN022
     FM011600 29010KT P6SM SCT025 BKN035=



000
FTUS43 KDMX 312338
TAFOTM
TAF
KOTM 312338Z 0100/0124 17011G18KT P6SM VCSH BKN120
     FM010400 15013KT P6SM VCTS SCT025 BKN050CB
      TEMPO 0105/0109 25025G35KT 2SM TSRA BKN030CB
     FM011100 24010KT P6SM SCT025 BKN030
     FM011800 28010KT P6SM BKN035=



000
FTUS43 KDMX 312338
TAFDSM
TAF
KDSM 312338Z 0100/0124 15010KT P6SM SCT060 BKN120
     FM010200 17013KT P6SM VCTS SCT030 BKN050CB
      TEMPO 0102/0106 25025G45KT 1SM TSRA BKN028CB
     FM010800 25011KT P6SM SCT022 BKN030
     FM011400 29009KT P6SM SCT035=



000
FTUS43 KDMX 312338
TAFMCW
TAF
KMCW 312338Z 0100/0124 19010KT P6SM SCT050 BKN100
     FM010200 16008KT P6SM VCTS SCT020 BKN050CB
      TEMPO 0104/0108 25025G40KT 2SM TSRA BKN028CB
     FM011000 25008KT P6SM BKN020
     FM011500 31011KT P6SM SCT025=



000
FTUS43 KDMX 312338
TAFFOD
TAF
KFOD 312338Z 0100/0124 09006KT P6SM VCSH SCT050 BKN120
     FM010100 15012KT P6SM VCTS SCT030 BKN050CB
      TEMPO 0101/0105 25025G40KT 2SM TSRA BKN030CB
     FM010800 25006KT P6SM SCT015 BKN050
     FM011500 31007KT P6SM SCT035=



000
FTUS43 KDMX 312338
TAFALO
TAF
KALO 312338Z 0100/0124 17010KT P6SM VCSH SCT080 BKN120
     FM010300 16011KT P6SM VCTS SCT020 BKN050CB
      TEMPO 0104/0108 25025G35KT 2SM TSRA BKN028CB
     FM011100 24006KT P6SM BKN022
     FM011600 29010KT P6SM SCT025 BKN035=



000
FTUS43 KDMX 312252 AAA
TAFMCW
TAF AMD
KMCW 312252Z 3123/0118 18012KT P6SM SCT080 BKN120
      TEMPO 3123/3124 6SM -TSRA SCT030 BKN080CB
     FM010300 16008KT P6SM VCTS SCT020 BKN050CB
      TEMPO 0104/0108 25025G40KT 2SM TSRA BKN028CB
     FM010900 25006KT P6SM BKN018
     FM011500 31013KT P6SM SCT025=



000
FTUS43 KDMX 312252 AAA
TAFMCW
TAF AMD
KMCW 312252Z 3123/0118 18012KT P6SM SCT080 BKN120
      TEMPO 3123/3124 6SM -TSRA SCT030 BKN080CB
     FM010300 16008KT P6SM VCTS SCT020 BKN050CB
      TEMPO 0104/0108 25025G40KT 2SM TSRA BKN028CB
     FM010900 25006KT P6SM BKN018
     FM011500 31013KT P6SM SCT025=



000
FTUS43 KDMX 311729
TAFALO
TAF
KALO 311729Z 3118/0118 18014G22KT P6SM SCT120
     FM010100 17013KT P6SM VCSH SCT080 BKN120
     FM010400 16011KT P6SM VCTS SCT020 BKN050CB
      TEMPO 0105/0109 25025G35KT 2SM TSRA BKN028CB
     FM011100 22006KT P6SM BKN022
     FM011600 28009KT P6SM SCT025 BKN035=



000
FTUS43 KDMX 311729
TAFDSM
TAF
KDSM 311729Z 3118/0118 18013G20KT P6SM SCT070 BKN150
     FM312200 17014KT P6SM VCSH SCT080 BKN120
     FM010200 17013KT P6SM VCTS SCT030 BKN050CB
      TEMPO 0103/0107 25025G45KT 1SM TSRA BKN028CB
     FM010800 22011KT P6SM SCT022 BKN030
     FM011400 29009KT P6SM SCT035=



000
FTUS43 KDMX 311729
TAFOTM
TAF
KOTM 311729Z 3118/0118 17013KT P6SM SCT200
     FM010500 15010KT P6SM VCTS SCT025 BKN050CB
      TEMPO 0106/0110 25025G35KT 2SM TSRA BKN030CB
     FM011100 24010KT P6SM SCT025 BKN035=



000
FTUS43 KDMX 311729
TAFFOD
TAF
KFOD 311729Z 3118/0118 18013G20KT P6SM BKN100
     FM312100 19012G18KT P6SM VCSH SCT050 BKN120
     FM010000 15012KT P6SM VCTS SCT030 BKN050CB
      TEMPO 0101/0105 25025G40KT 2SM TSRA BKN030CB
     FM010700 22006KT P6SM SCT025 BKN050
     FM011500 32009KT P6SM SCT035=



000
FTUS43 KDMX 311729
TAFMCW
TAF
KMCW 311729Z 3118/0118 18016G25KT P6SM SCT120
     FM312200 18012KT P6SM SCT080 BKN120
     FM010300 16008KT P6SM VCTS SCT020 BKN050CB
      TEMPO 0104/0108 25025G40KT 2SM TSRA BKN028CB
     FM010900 25006KT P6SM BKN018
     FM011500 31013KT P6SM SCT025=



000
FTUS43 KDMX 311729
TAFALO
TAF
KALO 311729Z 3118/0118 18014G22KT P6SM SCT120
     FM010100 17013KT P6SM VCSH SCT080 BKN120
     FM010400 16011KT P6SM VCTS SCT020 BKN050CB
      TEMPO 0105/0109 25025G35KT 2SM TSRA BKN028CB
     FM011100 22006KT P6SM BKN022
     FM011600 28009KT P6SM SCT025 BKN035=



000
FTUS43 KDMX 311729
TAFOTM
TAF
KOTM 311729Z 3118/0118 17013KT P6SM SCT200
     FM010500 15010KT P6SM VCTS SCT025 BKN050CB
      TEMPO 0106/0110 25025G35KT 2SM TSRA BKN030CB
     FM011100 24010KT P6SM SCT025 BKN035=



000
FTUS43 KDMX 311729
TAFFOD
TAF
KFOD 311729Z 3118/0118 18013G20KT P6SM BKN100
     FM312100 19012G18KT P6SM VCSH SCT050 BKN120
     FM010000 15012KT P6SM VCTS SCT030 BKN050CB
      TEMPO 0101/0105 25025G40KT 2SM TSRA BKN030CB
     FM010700 22006KT P6SM SCT025 BKN050
     FM011500 32009KT P6SM SCT035=



000
FTUS43 KDMX 311729
TAFMCW
TAF
KMCW 311729Z 3118/0118 18016G25KT P6SM SCT120
     FM312200 18012KT P6SM SCT080 BKN120
     FM010300 16008KT P6SM VCTS SCT020 BKN050CB
      TEMPO 0104/0108 25025G40KT 2SM TSRA BKN028CB
     FM010900 25006KT P6SM BKN018
     FM011500 31013KT P6SM SCT025=



000
FTUS43 KDMX 311729
TAFDSM
TAF
KDSM 311729Z 3118/0118 18013G20KT P6SM SCT070 BKN150
     FM312200 17014KT P6SM VCSH SCT080 BKN120
     FM010200 17013KT P6SM VCTS SCT030 BKN050CB
      TEMPO 0103/0107 25025G45KT 1SM TSRA BKN028CB
     FM010800 22011KT P6SM SCT022 BKN030
     FM011400 29009KT P6SM SCT035=



000
FTUS43 KDMX 311120
TAFFOD
TAF
KFOD 311120Z 3112/0112 15005KT 6SM BR FEW070
     FM311400 16006KT P6SM SCT070
     FM311600 18013G20KT P6SM SCT080
     FM312200 19012KT P6SM VCSH SCT050 BKN120
     FM010000 19012KT P6SM VCTS SCT030 BKN050CB
     FM010800 22006KT P6SM SCT025 BKN050=



000
FTUS43 KDMX 311120
TAFDSM
TAF
KDSM 311120Z 3112/0112 16006KT 6SM BR SCT070
     FM311500 18013G20KT P6SM SCT080
     FM312200 17012KT P6SM VCSH SCT080 BKN120
     FM010200 16011KT P6SM VCTS SCT030 BKN050CB
     FM010800 20008KT P6SM SCT025 BKN060=



000
FTUS43 KDMX 311120
TAFMCW
TAF
KMCW 311120Z 3112/0112 15005KT 2SM BR SCT002 BKN035
      TEMPO 3112/3114 1SM BR SCT001 BKN008
     FM311400 18004KT 5SM BR SCT070
     FM311500 18014G21KT P6SM SCT080
     FM010000 17012KT P6SM VCSH SCT080 BKN120
     FM010300 16008KT P6SM VCTS SCT020 BKN050CB
     FM011000 20006KT P6SM SCT025 BKN050=



000
FTUS43 KDMX 311120
TAFALO
TAF
KALO 311120Z 3112/0112 VRB03KT 1SM BR SCT002 SCT008
      TEMPO 3112/3114 1/2SM FG SCT002 BKN008
     FM311400 16004KT 3SM BR SCT070
     FM311500 18014G20KT P6SM SCT080
     FM010100 17013KT P6SM VCSH SCT080 BKN120
     FM010400 16007KT P6SM VCTS SCT020 BKN050CB
     FM011100 20006KT P6SM SCT025 BKN050=



000
FTUS43 KDMX 311120
TAFOTM
TAF
KOTM 311120Z 3112/0112 17005KT 6SM BR FEW070
      TEMPO 3112/3114 4SM BR SCT008
     FM311400 17006KT P6SM SCT100
     FM311600 18013KT P6SM SCT080
     FM010200 15010KT P6SM VCSH SCT080 BKN120
     FM010500 15010KT P6SM VCTS SCT025 BKN050CB
     FM011100 20006KT P6SM SCT025 BKN050=



000
FTUS43 KDMX 311120
TAFOTM
TAF
KOTM 311120Z 3112/0112 17005KT 6SM BR FEW070
      TEMPO 3112/3114 4SM BR SCT008
     FM311400 17006KT P6SM SCT100
     FM311600 18013KT P6SM SCT080
     FM010200 15010KT P6SM VCSH SCT080 BKN120
     FM010500 15010KT P6SM VCTS SCT025 BKN050CB
     FM011100 20006KT P6SM SCT025 BKN050=



000
FTUS43 KDMX 311120
TAFFOD
TAF
KFOD 311120Z 3112/0112 15005KT 6SM BR FEW070
     FM311400 16006KT P6SM SCT070
     FM311600 18013G20KT P6SM SCT080
     FM312200 19012KT P6SM VCSH SCT050 BKN120
     FM010000 19012KT P6SM VCTS SCT030 BKN050CB
     FM010800 22006KT P6SM SCT025 BKN050=



000
FTUS43 KDMX 311120
TAFDSM
TAF
KDSM 311120Z 3112/0112 16006KT 6SM BR SCT070
     FM311500 18013G20KT P6SM SCT080
     FM312200 17012KT P6SM VCSH SCT080 BKN120
     FM010200 16011KT P6SM VCTS SCT030 BKN050CB
     FM010800 20008KT P6SM SCT025 BKN060=



000
FTUS43 KDMX 311120
TAFMCW
TAF
KMCW 311120Z 3112/0112 15005KT 2SM BR SCT002 BKN035
      TEMPO 3112/3114 1SM BR SCT001 BKN008
     FM311400 18004KT 5SM BR SCT070
     FM311500 18014G21KT P6SM SCT080
     FM010000 17012KT P6SM VCSH SCT080 BKN120
     FM010300 16008KT P6SM VCTS SCT020 BKN050CB
     FM011000 20006KT P6SM SCT025 BKN050=



000
FTUS43 KDMX 311120
TAFALO
TAF
KALO 311120Z 3112/0112 VRB03KT 1SM BR SCT002 SCT008
      TEMPO 3112/3114 1/2SM FG SCT002 BKN008
     FM311400 16004KT 3SM BR SCT070
     FM311500 18014G20KT P6SM SCT080
     FM010100 17013KT P6SM VCSH SCT080 BKN120
     FM010400 16007KT P6SM VCTS SCT020 BKN050CB
     FM011100 20006KT P6SM SCT025 BKN050=



000
FTUS43 KDMX 310940 AAA
TAFALO
TAF AMD
KALO 310940Z 3110/0106 VRB03KT 1SM BR SCT002 BKN008
      TEMPO 3110/3111 1/2SM FG BKN002 BKN008
     FM311100 VRB03KT 1/2SM FG BKN002 BKN008
      TEMPO 3111/3113 1/4SM FG VV001
     FM311300 16004KT 3SM BR SCT070
     FM311500 18014G20KT P6SM SCT080
     FM312300 17013KT P6SM VCSH BKN120
     FM010300 16007KT P6SM VCTS BKN050CB=



000
FTUS43 KDMX 310940 AAA
TAFALO
TAF AMD
KALO 310940Z 3110/0106 VRB03KT 1SM BR SCT002 BKN008
      TEMPO 3110/3111 1/2SM FG BKN002 BKN008
     FM311100 VRB03KT 1/2SM FG BKN002 BKN008
      TEMPO 3111/3113 1/4SM FG VV001
     FM311300 16004KT 3SM BR SCT070
     FM311500 18014G20KT P6SM SCT080
     FM312300 17013KT P6SM VCSH BKN120
     FM010300 16007KT P6SM VCTS BKN050CB=



000
FTUS43 KDMX 310636 AAA
TAFMCW
TAF AMD
KMCW 310636Z 3107/0106 VRB03KT 2SM BR SCT008 SCT010
      TEMPO 3107/3109 1SM BR SCT002 SCT008
     FM310900 VRB03KT 1SM BR SCT002 SCT008
      TEMPO 3109/3111 1/2SM FG BKN002 BKN008
     FM311100 VRB03KT 1/2SM FG SCT002 BKN006
      TEMPO 3111/3113 1/4SM FG VV001
     FM311300 18004KT 3SM BR SCT070
     FM311500 18014G21KT P6SM SCT080
     FM312300 17012KT P6SM VCSH BKN120
     FM010100 16008KT P6SM VCTS BKN050CB=



000
FTUS43 KDMX 310636 AAA
TAFMCW
TAF AMD
KMCW 310636Z 3107/0106 VRB03KT 2SM BR SCT008 SCT010
      TEMPO 3107/3109 1SM BR SCT002 SCT008
     FM310900 VRB03KT 1SM BR SCT002 SCT008
      TEMPO 3109/3111 1/2SM FG BKN002 BKN008
     FM311100 VRB03KT 1/2SM FG SCT002 BKN006
      TEMPO 3111/3113 1/4SM FG VV001
     FM311300 18004KT 3SM BR SCT070
     FM311500 18014G21KT P6SM SCT080
     FM312300 17012KT P6SM VCSH BKN120
     FM010100 16008KT P6SM VCTS BKN050CB=



000
FTUS43 KDMX 310520
TAFMCW
TAF
KMCW 310520Z 3106/0106 VRB03KT P6SM SCT060
     FM311000 18004KT 3SM BR SCT070
     FM311500 18014G21KT P6SM SCT080
     FM312300 17012KT P6SM VCSH BKN120
     FM010100 16008KT P6SM VCTS BKN050CB=



000
FTUS43 KDMX 310520
TAFFOD
TAF
KFOD 310520Z 3106/0106 17003KT P6SM FEW070
      TEMPO 3110/3113 5SM BR
     FM311500 18013G20KT P6SM SCT080
     FM312200 19012KT P6SM VCSH BKN120
     FM010000 19012KT P6SM VCTS BKN050CB=



000
FTUS43 KDMX 310520
TAFDSM
TAF
KDSM 310520Z 3106/0106 VRB04KT P6SM SKC
     FM311100 16006KT 5SM BR SCT070
     FM311500 18013G20KT P6SM SCT080
     FM312200 17012KT P6SM VCSH BKN120
     FM010200 16011KT P6SM VCTS BKN050CB=



000
FTUS43 KDMX 310520
TAFALO
TAF
KALO 310520Z 3106/0106 VRB03KT P6SM SKC
     FM311000 16004KT 3SM BR SCT070
     FM311500 18014G20KT P6SM SCT080
     FM312300 17013KT P6SM VCSH BKN120
     FM010300 16007KT P6SM VCTS BKN050CB=



000
FTUS43 KDMX 310520
TAFOTM
TAF
KOTM 310520Z 3106/0106 16004KT P6SM SKC
     FM311000 17005KT 3SM BR FEW070
     FM311500 18013KT P6SM SCT080
     FM010000 15010KT P6SM VCSH BKN120
     FM010400 15010KT P6SM VCTS BKN050CB=



000
FTUS43 KDMX 310520
TAFFOD
TAF
KFOD 310520Z 3106/0106 17003KT P6SM FEW070
      TEMPO 3110/3113 5SM BR
     FM311500 18013G20KT P6SM SCT080
     FM312200 19012KT P6SM VCSH BKN120
     FM010000 19012KT P6SM VCTS BKN050CB=



000
FTUS43 KDMX 310520
TAFALO
TAF
KALO 310520Z 3106/0106 VRB03KT P6SM SKC
     FM311000 16004KT 3SM BR SCT070
     FM311500 18014G20KT P6SM SCT080
     FM312300 17013KT P6SM VCSH BKN120
     FM010300 16007KT P6SM VCTS BKN050CB=



000
FTUS43 KDMX 310520
TAFMCW
TAF
KMCW 310520Z 3106/0106 VRB03KT P6SM SCT060
     FM311000 18004KT 3SM BR SCT070
     FM311500 18014G21KT P6SM SCT080
     FM312300 17012KT P6SM VCSH BKN120
     FM010100 16008KT P6SM VCTS BKN050CB=



000
FTUS43 KDMX 310520
TAFOTM
TAF
KOTM 310520Z 3106/0106 16004KT P6SM SKC
     FM311000 17005KT 3SM BR FEW070
     FM311500 18013KT P6SM SCT080
     FM010000 15010KT P6SM VCSH BKN120
     FM010400 15010KT P6SM VCTS BKN050CB=



000
FTUS43 KDMX 310520
TAFDSM
TAF
KDSM 310520Z 3106/0106 VRB04KT P6SM SKC
     FM311100 16006KT 5SM BR SCT070
     FM311500 18013G20KT P6SM SCT080
     FM312200 17012KT P6SM VCSH BKN120
     FM010200 16011KT P6SM VCTS BKN050CB=



    US Dept of Commerce
    National Oceanic and Atmospheric Administration
    National Weather Service
    1325 East West Highway
    Silver Spring, MD 20910
    Page Author: NWS Internet Services Team
Disclaimer
Information Quality
Credits
Glossary
Privacy Policy
Freedom of Information Act (FOIA)
About Us
Career Opportunities